createdAt,value
2023-01-04T00:03:31.522Z,102214.56
2023-01-04T00:08:28.572Z,102161.13
2023-01-04T00:13:25.396Z,102229.50
2023-01-04T00:18:22.335Z,102273.78
2023-01-04T00:23:19.762Z,102293.78
2023-01-04T00:28:17.264Z,102286.03
2023-01-04T00:33:17.644Z,102283.34
2023-01-04T00:38:14.402Z,102264.38
2023-01-04T00:43:11.875Z,102184.75
2023-01-04T00:48:08.675Z,102272.13
2023-01-04T00:53:05.489Z,102300.78
2023-01-04T00:58:02.340Z,102295.69
2023-01-04T01:03:00.120Z,102248.81
2023-01-04T01:07:57.192Z,102274.69
2023-01-04T01:12:54.360Z,102277.28
2023-01-04T01:17:51.114Z,102266.84
2023-01-04T01:22:48.595Z,102248.75
2023-01-04T01:27:45.350Z,102251.44
2023-01-04T01:32:42.181Z,102283.59
2023-01-04T01:37:38.965Z,102293.28
2023-01-04T01:42:36.541Z,102268.22
2023-01-04T01:47:40.081Z,102240.56
2023-01-04T01:52:38.891Z,102288.97
2023-01-04T01:57:37.688Z,102313.34
2023-01-04T02:02:34.861Z,102319.47
2023-01-04T02:07:32.267Z,102271.75
2023-01-04T02:12:29.117Z,102231.13
2023-01-04T02:17:37.874Z,102216.38
2023-01-04T02:23:03.219Z,102300.44
2023-01-04T02:28:06.472Z,102278.09
2023-01-04T02:33:18.779Z,102301.56
2023-01-04T02:38:22.691Z,102262.72
2023-01-04T02:43:45.170Z,102293.84
2023-01-04T02:49:00.797Z,102294.75
2023-01-04T02:54:00.531Z,102307.69
2023-01-04T02:59:12.228Z,102300.75
2023-01-04T03:04:43.397Z,102306.78
2023-01-04T03:09:47.205Z,102299.81
2023-01-04T03:14:48.016Z,102240.00
2023-01-04T03:19:51.157Z,102258.91
2023-01-04T03:25:06.121Z,102249.50
2023-01-04T03:30:25.917Z,102312.72
2023-01-04T03:35:38.143Z,102306.63
2023-01-04T03:40:54.564Z,102293.56
2023-01-04T03:46:14.965Z,102292.72
2023-01-04T03:51:16.430Z,102294.47
2023-01-04T03:56:14.974Z,102304.03
2023-01-04T04:01:12.963Z,102302.31
2023-01-04T04:06:28.139Z,102290.22
2023-01-04T04:11:31.851Z,102279.81
2023-01-04T04:16:28.856Z,102283.22
2023-01-04T04:21:25.742Z,102310.97
2023-01-04T04:26:23.342Z,102283.19
2023-01-04T04:31:20.790Z,102307.47
2023-01-04T04:36:17.738Z,102278.09
2023-01-04T04:41:29.452Z,102312.47
2023-01-04T04:46:27.657Z,102304.28
2023-01-04T04:51:24.701Z,102320.53
2023-01-04T04:56:21.575Z,102323.75
2023-01-04T05:01:18.856Z,102311.34
2023-01-04T05:06:16.414Z,102334.38
2023-01-04T05:11:14.107Z,102326.28
2023-01-04T05:16:11.135Z,102309.66
2023-01-04T05:21:08.068Z,102326.88
2023-01-04T05:26:05.861Z,102345.22
2023-01-04T05:31:02.850Z,102294.91
2023-01-04T05:36:02.079Z,102334.47
2023-01-04T05:40:58.962Z,102253.59
2023-01-04T05:45:56.830Z,102294.44
2023-01-04T05:50:54.045Z,102305.72
2023-01-04T05:55:51.157Z,102347.56
2023-01-04T06:00:49.939Z,102356.47
2023-01-04T06:05:49.999Z,102297.75
2023-01-04T06:10:55.575Z,102299.28
2023-01-04T06:15:52.418Z,102354.47
2023-01-04T06:21:01.818Z,102340.63
2023-01-04T06:25:58.655Z,102348.59
2023-01-04T06:30:58.312Z,102362.22
2023-01-04T06:35:56.745Z,102375.91
2023-01-04T06:40:53.640Z,102388.03
2023-01-04T06:45:50.520Z,102397.59
2023-01-04T06:50:47.596Z,102369.69
2023-01-04T06:55:50.073Z,102414.50
2023-01-04T07:00:47.051Z,102411.53
2023-01-04T07:05:45.461Z,102294.38
2023-01-04T07:10:44.173Z,102415.28
2023-01-04T07:15:41.866Z,102426.25
2023-01-04T07:20:39.295Z,102384.38
2023-01-04T07:25:36.407Z,102443.69
2023-01-04T07:30:33.470Z,102424.97
2023-01-04T07:35:31.358Z,102396.03
2023-01-04T07:40:28.223Z,102436.31
2023-01-04T07:45:25.625Z,102422.94
2023-01-04T07:50:22.443Z,102424.34
2023-01-04T07:55:19.882Z,102387.94
2023-01-04T08:00:17.105Z,102402.66
2023-01-04T08:05:14.004Z,102447.72
2023-01-04T08:10:10.816Z,102457.25
2023-01-04T08:15:09.147Z,102434.41
2023-01-04T08:20:07.309Z,102447.09
2023-01-04T08:25:06.432Z,102461.50
2023-01-04T08:30:03.981Z,102450.41
2023-01-04T08:35:01.639Z,102486.88
2023-01-04T08:39:58.496Z,102485.13
2023-01-04T08:44:59.654Z,102480.44
2023-01-04T08:49:57.291Z,102468.09
2023-01-04T08:54:54.898Z,102469.94
2023-01-04T08:59:52.265Z,102469.69
2023-01-04T09:04:49.636Z,102430.47
2023-01-04T09:09:46.626Z,102483.19
2023-01-04T09:14:44.161Z,102459.84
2023-01-04T09:19:43.871Z,102452.22
2023-01-04T09:24:40.755Z,102450.91
2023-01-04T09:29:37.846Z,102453.84
2023-01-04T09:34:35.361Z,102350.06
2023-01-04T09:39:32.209Z,102374.28
2023-01-04T09:45:21.081Z,102414.03
2023-01-04T09:50:00.252Z,102404.44
2023-01-04T09:55:04.768Z,102389.84
2023-01-04T10:00:24.799Z,102444.56
2023-01-04T10:05:26.094Z,102448.22
2023-01-04T10:10:41.650Z,102390.81
2023-01-04T10:15:44.859Z,102424.16
2023-01-04T10:26:25.019Z,102439.28
2023-01-04T10:31:39.474Z,102390.75
2023-01-04T10:36:38.956Z,102450.25
2023-01-04T10:41:40.515Z,102440.28
2023-01-04T10:46:44.919Z,102444.44
2023-01-04T10:51:51.301Z,102396.69
2023-01-04T10:57:00.164Z,102406.53
2023-01-04T11:02:08.198Z,102446.41
2023-01-04T11:07:12.031Z,102446.00
2023-01-04T11:12:13.069Z,102423.13
2023-01-04T11:17:11.832Z,102470.19
2023-01-04T11:22:17.545Z,102405.47
2023-01-04T11:27:23.602Z,102468.94
2023-01-04T11:32:34.150Z,102460.56
2023-01-04T11:37:33.338Z,102449.66
2023-01-04T11:42:31.143Z,102467.22
2023-01-04T11:47:29.890Z,102459.66
2023-01-04T11:52:33.523Z,102476.31
2023-01-04T11:57:30.280Z,102459.78
2023-01-04T12:07:44.481Z,102451.06
2023-01-04T12:12:41.261Z,102382.66
2023-01-04T12:17:50.356Z,102451.88
2023-01-04T12:22:47.815Z,102447.34
2023-01-04T12:27:47.587Z,102445.50
2023-01-04T12:32:45.922Z,102446.31
2023-01-04T12:37:48.682Z,102372.72
2023-01-04T12:43:22.739Z,102453.47
2023-01-04T12:48:52.269Z,102432.59
2023-01-04T12:53:50.950Z,102381.94
2023-01-04T13:04:40.676Z,102449.28
2023-01-04T13:09:48.189Z,102434.47
2023-01-04T13:14:50.051Z,102417.34
2023-01-04T13:19:47.691Z,102410.53
2023-01-04T13:24:46.721Z,102435.50
2023-01-04T13:29:44.201Z,102376.69
2023-01-04T13:34:49.944Z,102393.19
2023-01-04T13:39:47.662Z,102442.78
2023-01-04T13:45:24.024Z,102453.31
2023-01-04T13:50:33.398Z,102456.03
2023-01-04T13:55:34.453Z,102427.44
2023-01-04T14:00:58.858Z,102421.47
2023-01-04T14:06:13.315Z,102359.00
2023-01-04T14:11:44.467Z,102435.34
2023-01-04T14:16:44.614Z,102430.38
2023-01-04T14:21:43.586Z,102379.34
2023-01-04T14:26:43.103Z,102407.06
2023-01-04T14:31:40.243Z,102342.97
2023-01-04T14:36:40.236Z,102428.75
2023-01-04T14:41:40.069Z,102343.97
2023-01-04T14:46:37.376Z,102412.31
2023-01-04T14:51:38.451Z,102450.53
2023-01-04T14:56:41.410Z,102433.13
2023-01-04T15:01:39.328Z,102468.75
2023-01-04T15:06:36.648Z,102460.19
2023-01-04T15:11:33.731Z,102454.91
2023-01-04T15:16:31.464Z,102423.69
2023-01-04T15:21:28.972Z,102466.06
2023-01-04T15:26:26.910Z,102476.59
2023-01-04T15:31:31.243Z,102433.44
2023-01-04T15:36:34.580Z,102485.50
2023-01-04T15:41:51.707Z,102390.28
2023-01-04T15:46:52.002Z,102453.53
2023-01-04T15:51:50.492Z,102457.88
2023-01-04T15:56:49.481Z,102460.53
2023-01-04T16:01:47.045Z,102350.53
2023-01-04T16:06:44.308Z,102477.88
2023-01-04T16:11:58.985Z,102500.47
2023-01-04T16:16:56.871Z,102507.50
2023-01-04T16:21:59.519Z,102475.34
2023-01-04T16:26:57.995Z,102505.72
2023-01-04T16:31:55.230Z,102502.00
2023-01-04T16:36:52.089Z,102369.94
2023-01-04T16:41:49.474Z,102474.31
2023-01-04T16:46:47.748Z,102485.09
2023-01-04T16:51:47.631Z,102402.53
2023-01-04T16:56:48.740Z,102357.31
2023-01-04T17:02:08.054Z,102426.59
2023-01-04T17:07:06.056Z,102391.47
2023-01-04T17:17:24.547Z,102426.78
2023-01-04T17:22:30.672Z,102375.63
2023-01-04T17:27:31.184Z,102484.00
2023-01-04T17:32:32.541Z,102484.88
2023-01-04T17:37:29.459Z,102445.09
2023-01-04T17:42:26.394Z,102420.75
2023-01-04T17:47:23.313Z,102439.00
2023-01-04T17:52:30.429Z,102405.19
2023-01-04T17:57:28.745Z,102444.31
2023-01-04T18:02:25.626Z,102407.22
2023-01-04T18:07:24.870Z,102395.34
2023-01-04T18:12:22.055Z,102470.81
2023-01-04T18:17:19.225Z,102463.88
2023-01-04T18:22:16.857Z,102426.81
2023-01-04T18:27:23.610Z,102367.06
2023-01-04T18:32:22.292Z,102415.69
2023-01-04T18:37:19.524Z,102459.91
2023-01-04T18:42:17.421Z,102399.34
2023-01-04T18:47:14.401Z,102413.22
2023-01-04T18:52:11.523Z,102446.16
2023-01-04T18:57:08.611Z,102447.13
2023-01-04T19:02:06.683Z,102442.09
2023-01-04T19:07:03.967Z,102421.41
2023-01-04T19:12:03.207Z,102409.31
2023-01-04T19:17:05.303Z,102341.81
2023-01-04T19:22:10.055Z,102464.06
2023-01-04T19:27:11.120Z,102343.66
2023-01-04T19:32:08.142Z,102433.69
2023-01-04T19:37:08.624Z,102431.75
2023-01-04T19:42:05.782Z,102413.28
2023-01-04T19:47:05.905Z,102444.19
2023-01-04T19:52:05.770Z,102344.38
2023-01-04T19:57:02.734Z,102423.84
2023-01-04T20:02:01.945Z,102354.38
2023-01-04T20:06:59.032Z,102393.91
2023-01-04T20:11:59.861Z,102430.28
2023-01-04T20:17:02.121Z,102418.06
2023-01-04T20:22:02.302Z,102384.00
2023-01-04T20:27:02.378Z,102381.19
2023-01-04T20:32:02.790Z,102346.31
2023-01-04T20:37:02.271Z,102323.66
2023-01-04T20:42:17.913Z,102334.66
2023-01-04T20:47:18.912Z,102367.34
2023-01-04T20:52:17.746Z,102380.13
2023-01-04T20:57:15.596Z,102360.19
2023-01-04T21:02:12.999Z,102334.97
2023-01-04T21:07:12.420Z,102385.94
2023-01-04T21:12:09.381Z,102294.94
2023-01-04T21:17:08.183Z,102332.78
2023-01-04T21:22:05.205Z,102310.09
2023-01-04T21:27:02.198Z,102361.81
2023-01-04T21:31:59.127Z,102333.88
2023-01-04T21:36:56.820Z,102278.50
2023-01-04T21:41:56.378Z,102257.72
2023-01-04T21:46:53.441Z,102346.53
2023-01-04T21:51:50.389Z,102288.44
2023-01-04T21:56:47.917Z,102334.19
2023-01-04T22:01:44.944Z,102327.97
2023-01-04T22:06:41.811Z,102280.53
2023-01-04T22:11:40.248Z,102323.53
2023-01-04T22:16:37.912Z,102246.34
2023-01-04T22:21:34.728Z,102302.44
2023-01-04T22:26:31.691Z,102304.16
2023-01-04T22:31:28.562Z,102300.66
2023-01-04T22:36:26.591Z,102209.84
2023-01-04T22:41:24.895Z,102214.94
2023-01-04T22:46:21.873Z,102287.53
2023-01-04T22:51:20.314Z,102211.41
2023-01-04T22:56:21.329Z,102268.28
2023-01-04T23:01:18.715Z,102231.06
2023-01-04T23:06:15.716Z,102228.34
2023-01-04T23:11:14.866Z,102211.00
2023-01-04T23:16:14.703Z,102200.91
2023-01-04T23:21:12.226Z,102235.47
2023-01-04T23:26:12.771Z,102195.88
2023-01-04T23:31:13.250Z,102231.38
2023-01-04T23:36:12.192Z,102174.31
2023-01-04T23:41:10.739Z,102173.59
2023-01-04T23:46:08.344Z,102208.16
2023-01-04T23:51:07.887Z,102175.31
2023-01-04T23:56:07.031Z,102165.66
